Time;durP1;ratioP1;P1;durP2;ratioP2;P2;SDS_P1;SDS_P2;PMS_P1;PMS_P2;Temp;Humidity;BMP_temperature;BMP_pressure;BME280_temperature;BME280_humidity;BME280_pressure;Samples;Min_cycle;Max_cycle;Signal;HPM_P1;HPM_P2
2022/11/29 00:00:48;;;;;;;133.02;20.20;;;7.60;99.90;;;;;;5042450;28;20134;-61
2022/11/29 00:03:14;;;;;;;98.40;18.38;;;7.60;99.90;;;;;;5063846;28;20090;-60
2022/11/29 00:05:40;;;;;;;102.00;19.10;;;7.50;99.90;;;;;;5044967;28;20122;-61
2022/11/29 00:08:06;;;;;;;146.27;22.58;;;7.50;99.90;;;;;;5041494;28;20582;-62
2022/11/29 00:10:35;;;;;;;67.60;17.13;;;7.40;99.90;;;;;;5048048;28;20580;-62
2022/11/29 00:13:01;;;;;;;95.93;19.70;;;7.40;99.90;;;;;;5048150;28;20539;-60
2022/11/29 00:15:27;;;;;;;118.68;20.60;;;7.50;99.90;;;;;;5031193;28;20140;-62
2022/11/29 00:17:52;;;;;;;87.10;19.50;;;7.40;99.90;;;;;;5059355;28;20495;-63
2022/11/29 00:20:18;;;;;;;145.20;24.30;;;7.40;99.90;;;;;;5041547;28;20131;-63
2022/11/29 00:22:44;;;;;;;141.05;23.58;;;7.50;99.90;;;;;;5029925;28;20476;-60
2022/11/29 00:25:09;;;;;;;97.28;18.88;;;7.40;99.90;;;;;;5038627;28;20044;-62
2022/11/29 00:27:35;;;;;;;94.53;19.88;;;7.40;99.90;;;;;;5036293;28;20048;-61
2022/11/29 00:30:01;;;;;;;172.48;28.60;;;7.40;99.90;;;;;;5036447;28;20044;-61
2022/11/29 00:32:27;;;;;;;118.07;21.80;;;7.40;99.90;;;;;;5037057;28;20102;-64
2022/11/29 00:34:52;;;;;;;111.65;24.33;;;7.40;99.90;;;;;;5019432;28;20043;-62
2022/11/29 00:37:18;;;;;;;208.80;28.60;;;7.40;99.90;;;;;;5043892;28;20075;-62
2022/11/29 00:39:44;;;;;;;84.03;18.00;;;7.50;99.90;;;;;;5029412;28;20090;-62
2022/11/29 00:42:10;;;;;;;153.90;25.92;;;7.40;99.90;;;;;;5042451;28;20048;-61
2022/11/29 00:44:35;;;;;;;60.75;20.02;;;7.40;99.90;;;;;;5063784;28;20094;-62
2022/11/29 00:47:01;;;;;;;84.22;22.27;;;7.40;99.90;;;;;;5043685;28;20041;-62
2022/11/29 00:49:26;;;;;;;67.63;18.90;;;7.40;99.90;;;;;;5025626;28;20048;-62
2022/11/29 00:51:52;;;;;;;52.67;18.20;;;7.40;99.90;;;;;;5043938;28;20125;-63
2022/11/29 00:54:19;;;;;;;39.40;15.55;;;7.50;99.90;;;;;;5066808;28;20166;-62
2022/11/29 00:56:44;;;;;;;67.15;18.83;;;7.40;99.90;;;;;;5037206;28;20048;-62
2022/11/29 00:59:10;;;;;;;53.72;16.92;;;7.40;99.90;;;;;;5043365;28;20048;-59
2022/11/29 01:01:36;;;;;;;52.40;16.38;;;7.40;99.90;;;;;;5045506;28;20387;-59
2022/11/29 01:04:02;;;;;;;51.10;16.80;;;7.40;99.90;;;;;;5036653;28;20053;-62
2022/11/29 01:06:27;;;;;;;49.83;16.95;;;7.40;99.90;;;;;;5038479;28;20053;-61
2022/11/29 01:08:53;;;;;;;43.45;15.50;;;7.40;99.90;;;;;;5046693;28;20067;-63
2022/11/29 01:11:25;;;;;;;35.38;15.65;;;7.40;99.90;;;;;;5044780;28;20720;-59
2022/11/29 01:13:54;;;;;;;50.35;16.55;;;7.40;99.90;;;;;;5046920;28;20051;-60
2022/11/29 01:16:20;;;;;;;37.08;15.98;;;7.40;99.90;;;;;;5038695;28;20307;-59
2022/11/29 01:18:46;;;;;;;57.53;19.17;;;7.40;99.90;;;;;;5055334;28;20466;-60
2022/11/29 01:21:15;;;;;;;35.30;16.65;;;7.40;99.90;;;;;;5041350;28;20033;-61
2022/11/29 01:23:42;;;;;;;38.03;15.85;;;7.40;99.90;;;;;;5062313;28;20033;-61
2022/11/29 01:26:11;;;;;;;25.92;13.73;;;7.40;99.90;;;;;;5061567;28;20051;-58
2022/11/29 01:28:37;;;;;;;60.92;20.67;;;7.40;99.90;;;;;;5010778;28;20487;-63
2022/11/29 01:31:11;;;;;;;72.30;21.00;;;7.40;99.90;;;;;;5045515;28;20534;-61
2022/11/29 01:33:37;;;;;;;;;;;7.40;99.90;;;;;;5065702;28;20036;-62
2022/11/29 01:36:04;;;;;;;31.38;15.80;;;7.30;99.90;;;;;;5043154;28;20122;-63
2022/11/29 01:38:30;;;;;;;36.42;16.13;;;7.30;99.90;;;;;;5027861;28;20049;-62
2022/11/29 01:41:19;;;;;;;21.58;12.95;;;7.40;99.90;;;;;;5049063;28;20033;-63
2022/11/29 01:44:13;;;;;;;35.40;15.70;;;7.30;99.90;;;;;;5038047;28;20048;-62
2022/11/29 01:46:44;;;;;;;26.35;14.43;;;7.30;99.90;;;;;;5042177;28;20047;-61
2022/11/29 01:49:15;;;;;;;34.83;15.40;;;7.30;99.90;;;;;;5043775;28;20048;-63
2022/11/29 01:51:45;;;;;;;60.55;18.27;;;7.30;99.90;;;;;;5061510;28;20163;-63
2022/11/29 01:54:13;;;;;;;25.08;13.73;;;7.30;99.90;;;;;;5031613;28;20051;-62
2022/11/29 01:56:40;;;;;;;29.70;15.80;;;7.30;99.90;;;;;;5056836;28;20036;-64
2022/11/29 01:59:10;;;;;;;41.92;18.48;;;7.30;99.90;;;;;;5043815;28;20446;-63
2022/11/29 02:01:36;;;;;;;31.50;15.88;;;7.20;99.90;;;;;;5040132;28;20057;-62
2022/11/29 02:04:03;;;;;;;27.70;16.70;;;7.20;99.90;;;;;;5046351;28;20136;-64
2022/11/29 02:06:29;;;;;;;24.02;14.00;;;7.20;99.90;;;;;;5046702;28;20123;-63
2022/11/29 02:08:55;;;;;;;27.50;13.30;;;7.30;99.90;;;;;;5050187;28;20109;-61
2022/11/29 02:11:40;;;;;;;30.75;15.95;;;7.20;99.90;;;;;;5055222;28;20045;-63
2022/11/29 02:14:21;;;;;;;32.05;14.55;;;7.20;99.90;;;;;;5049285;28;20128;-60
2022/11/29 02:17:14;;;;;;;25.15;15.88;;;7.10;99.90;;;;;;5046417;28;20083;-62
2022/11/29 02:20:18;;;;;;;23.38;12.32;;;7.20;99.90;;;;;;5043224;28;20048;-61
2022/11/29 02:23:22;;;;;;;23.43;15.37;;;7.10;99.90;;;;;;5009944;28;20526;-59
2022/11/29 02:26:09;;;;;;;35.05;18.10;;;7.10;99.90;;;;;;5044519;28;20041;-63
2022/11/29 02:29:13;;;;;;;33.78;15.13;;;7.20;99.90;;;;;;5044218;28;20487;-62
2022/11/29 02:31:57;;;;;;;32.85;15.98;;;7.10;99.90;;;;;;5013665;28;20044;-61
2022/11/29 02:34:51;;;;;;;23.70;13.43;;;7.10;99.90;;;;;;5037922;28;20368;-61
2022/11/29 02:37:20;;;;;;;22.45;14.25;;;7.10;99.90;;;;;;5013273;28;20112;-61
2022/11/29 02:40:15;;;;;;;24.33;15.45;;;7.10;99.90;;;;;;5036815;28;20045;-62
2022/11/29 02:43:35;;;;;;;24.35;14.27;;;7.50;99.90;;;;;;5045451;28;20106;-64
2022/11/29 02:46:25;;;;;;;24.60;14.00;;;7.10;99.90;;;;;;4994888;28;20128;-62
2022/11/29 02:49:12;;;;;;;27.77;15.25;;;7.10;99.90;;;;;;5037985;28;20045;-59
2022/11/29 02:51:47;;;;;;;21.67;12.88;;;7.10;99.90;;;;;;5026610;28;20406;-63
2022/11/29 02:54:26;;;;;;;20.48;12.35;;;7.10;99.90;;;;;;5041779;28;20582;-62
2022/11/29 02:57:32;;;;;;;27.60;14.20;;;7.00;99.90;;;;;;5039563;28;20071;-63
2022/11/29 03:00:09;;;;;;;27.92;13.15;;;7.00;99.90;;;;;;5015125;28;20403;-60
2022/11/29 03:02:51;;;;;;;48.33;15.50;;;6.90;99.90;;;;;;5029398;28;20047;-62
2022/11/29 03:05:22;;;;;;;27.20;11.50;;;6.90;99.90;;;;;;5040423;28;20454;-61
2022/11/29 03:08:04;;;;;;;18.75;10.98;;;6.90;99.90;;;;;;5045601;28;20040;-59
2022/11/29 03:10:51;;;;;;;28.65;12.02;;;6.90;99.90;;;;;;5044829;28;20049;-61
2022/11/29 03:13:38;;;;;;;23.73;13.50;;;6.80;99.90;;;;;;5047387;28;20041;-61
2022/11/29 03:16:15;;;;;;;70.57;15.18;;;6.80;99.90;;;;;;5044974;28;20059;-61
2022/11/29 03:19:11;;;;;;;25.23;10.75;;;6.80;99.90;;;;;;5050363;28;20036;-59
2022/11/29 03:21:47;;;;;;;65.75;12.90;;;6.80;99.90;;;;;;5042658;28;20040;-63
2022/11/29 03:24:29;;;;;;;85.50;13.45;;;6.70;99.90;;;;;;5043469;28;20114;-61
2022/11/29 03:27:10;;;;;;;114.18;17.75;;;6.70;99.90;;;;;;5043587;28;20099;-60
2022/11/29 03:29:59;;;;;;;77.55;15.35;;;6.70;99.90;;;;;;5026341;28;20075;-62
2022/11/29 03:32:25;;;;;;;124.55;16.40;;;6.70;99.90;;;;;;5046988;28;20385;-61
2022/11/29 03:35:03;;;;;;;63.70;12.60;;;6.70;99.90;;;;;;5040038;28;20043;-62
2022/11/29 03:37:43;;;;;;;59.78;14.45;;;6.70;99.90;;;;;;5034826;28;20446;-62
2022/11/29 03:40:17;;;;;;;84.45;15.55;;;6.70;99.90;;;;;;5044845;28;20388;-62
2022/11/29 03:43:05;;;;;;;106.47;17.00;;;6.70;99.90;;;;;;5043059;28;20048;-60
2022/11/29 03:45:38;;;;;;;53.38;13.15;;;6.70;99.90;;;;;;5038100;28;20051;-61
2022/11/29 03:48:13;;;;;;;36.17;10.82;;;6.60;99.90;;;;;;5057841;28;20086;-64
2022/11/29 03:50:50;;;;;;;45.42;11.50;;;6.60;99.90;;;;;;5028137;28;20413;-59
2022/11/29 03:53:52;;;;;;;16.73;9.25;;;6.60;99.90;;;;;;5044692;28;20062;-62
2022/11/29 03:56:37;;;;;;;86.43;15.35;;;6.60;99.90;;;;;;5037501;28;20059;-62
2022/11/29 03:59:10;;;;;;;31.45;11.63;;;6.60;99.90;;;;;;5028729;28;20487;-60
2022/11/29 04:02:06;;;;;;;24.55;10.02;;;6.60;99.90;;;;;;5041375;28;20044;-62
2022/11/29 04:05:07;;;;;;;40.85;13.13;;;6.60;99.90;;;;;;5043350;28;20507;-59
2022/11/29 04:07:55;;;;;;;30.75;11.90;;;6.60;99.90;;;;;;5000424;28;20375;-61
2022/11/29 04:10:27;;;;;;;18.85;10.20;;;6.50;99.90;;;;;;5040758;28;20041;-62
2022/11/29 04:13:17;;;;;;;24.65;10.68;;;6.50;99.90;;;;;;5025813;28;20064;-61
2022/11/29 04:15:52;;;;;;;19.90;9.38;;;6.60;99.90;;;;;;5047393;28;20056;-62
2022/11/29 04:18:18;;;;;;;20.75;10.75;;;6.50;99.90;;;;;;5033140;28;20043;-62
2022/11/29 04:21:05;;;;;;;25.00;11.48;;;6.50;99.90;;;;;;5047854;28;20036;-63
2022/11/29 04:24:09;;;;;;;27.50;10.65;;;6.50;99.90;;;;;;5029623;28;20178;-59
2022/11/29 04:27:00;;;;;;;34.05;12.43;;;6.50;99.90;;;;;;5045655;28;20044;-61
2022/11/29 04:29:42;;;;;;;17.92;9.40;;;6.40;99.90;;;;;;5040229;28;20044;-61
2022/11/29 04:32:38;;;;;;;45.75;14.38;;;6.40;99.90;;;;;;5047808;28;20105;-62
2022/11/29 04:35:23;;;;;;;22.80;9.05;;;6.40;99.90;;;;;;5036931;28;20438;-62
2022/11/29 04:38:00;;;;;;;34.25;12.35;;;6.30;99.90;;;;;;5052183;28;20055;-62
2022/11/29 04:40:55;;;;;;;29.92;11.77;;;6.30;99.90;;;;;;5055040;28;20068;-61
2022/11/29 04:43:52;;;;;;;29.15;10.65;;;6.30;99.90;;;;;;5027898;28;20131;-59
2022/11/29 04:46:30;;;;;;;50.17;11.10;;;6.30;99.90;;;;;;5048472;28;20483;-57
2022/11/29 04:49:04;;;;;;;21.85;9.27;;;6.30;99.90;;;;;;5052273;28;20037;-61
2022/11/29 04:52:08;;;;;;;30.80;10.65;;;6.20;99.90;;;;;;5053664;28;20054;-58
2022/11/29 04:54:38;;;;;;;24.08;10.15;;;6.20;99.90;;;;;;5044025;28;20480;-62
2022/11/29 04:57:27;;;;;;;16.85;8.27;;;6.20;99.90;;;;;;5048980;28;20369;-62
2022/11/29 05:00:09;;;;;;;29.83;10.60;;;6.20;99.90;;;;;;5012403;28;20055;-61
2022/11/29 05:02:58;;;;;;;21.23;10.32;;;6.20;99.90;;;;;;5043289;28;20048;-62
2022/11/29 05:05:53;;;;;;;40.88;10.15;;;6.20;99.90;;;;;;5043721;28;20048;-64
2022/11/29 05:08:31;;;;;;;38.78;12.05;;;6.20;99.90;;;;;;5033469;28;20091;-60
2022/11/29 05:11:13;;;;;;;25.38;11.10;;;6.20;99.90;;;;;;5037898;28;20036;-62
2022/11/29 05:13:44;;;;;;;40.03;14.13;;;6.10;99.90;;;;;;5062459;28;20135;-63
2022/11/29 05:16:29;;;;;;;32.95;13.63;;;6.20;99.90;;;;;;5047732;28;20044;-62
2022/11/29 05:19:12;;;;;;;16.48;9.95;;;6.20;99.90;;;;;;5033183;28;20033;-64
2022/11/29 05:21:41;;;;;;;22.58;11.32;;;6.20;99.90;;;;;;5053651;28;20040;-62
2022/11/29 05:24:39;;;;;;;23.45;10.25;;;6.20;99.90;;;;;;5042724;28;20044;-62
2022/11/29 05:27:26;;;;;;;18.63;9.95;;;6.20;99.90;;;;;;5001541;28;20049;-60
2022/11/29 05:30:18;;;;;;;16.65;9.52;;;6.10;99.90;;;;;;5048506;28;20139;-62
2022/11/29 05:32:56;;;;;;;22.48;10.93;;;6.10;99.90;;;;;;5044500;28;20218;-62
2022/11/29 05:35:53;;;;;;;16.63;9.82;;;6.20;99.90;;;;;;5039906;28;20083;-62
2022/11/29 05:38:42;;;;;;;19.90;10.82;;;6.20;99.90;;;;;;5048040;28;20040;-60
2022/11/29 05:41:42;;;;;;;30.80;13.88;;;6.20;99.90;;;;;;5045015;28;20044;-59
2022/11/29 05:44:12;;;;;;;18.38;11.10;;;6.20;99.90;;;;;;5069606;22;20290;-58
2022/11/29 05:46:58;;;;;;;26.77;13.13;;;6.20;99.90;;;;;;5064480;28;20040;-57
2022/11/29 05:50:13;;;;;;;29.58;12.68;;;6.20;99.90;;;;;;5079769;28;20046;-58
2022/11/29 05:53:05;;;;;;;18.58;11.25;;;6.20;99.90;;;;;;5068926;28;20139;-58
2022/11/29 05:55:55;;;;;;;18.23;9.80;;;6.20;99.90;;;;;;5060887;28;20048;-58
2022/11/29 05:58:50;;;;;;;23.23;10.65;;;6.20;99.90;;;;;;5065997;28;20032;-57
2022/11/29 06:01:31;;;;;;;21.73;10.75;;;6.10;99.90;;;;;;5062517;28;20085;-57
2022/11/29 06:04:18;;;;;;;18.17;11.50;;;6.10;99.90;;;;;;5064717;28;20501;-58
2022/11/29 06:06:51;;;;;;;17.75;10.23;;;6.00;99.90;;;;;;5065180;28;20048;-58
2022/11/29 06:09:29;;;;;;;26.92;13.27;;;6.10;99.90;;;;;;5069415;28;20452;-56
2022/11/29 06:12:05;;;;;;;19.77;10.25;;;6.10;99.90;;;;;;5046574;28;20456;-57
2022/11/29 06:14:55;;;;;;;22.15;11.75;;;6.00;99.90;;;;;;5068009;28;20467;-56
2022/11/29 06:17:47;;;;;;;28.88;14.27;;;6.20;99.90;;;;;;5063420;28;20051;-58
2022/11/29 06:20:22;;;;;;;25.95;13.38;;;6.00;99.90;;;;;;5086020;28;20068;-58
2022/11/29 06:23:13;;;;;;;22.60;12.48;;;6.00;99.90;;;;;;5068765;28;20060;-58
2022/11/29 06:26:32;;;;;;;21.90;12.90;;;6.00;99.90;;;;;;5062860;28;20483;-58
2022/11/29 06:29:17;;;;;;;27.08;12.70;;;5.90;99.90;;;;;;5083334;28;20080;-58
2022/11/29 06:31:49;;;;;;;22.08;12.30;;;5.90;99.90;;;;;;5070666;28;20059;-57
2022/11/29 06:34:26;;;;;;;21.83;11.18;;;6.00;99.90;;;;;;5062005;28;20072;-58
2022/11/29 06:36:58;;;;;;;26.23;13.52;;;6.00;99.90;;;;;;5058654;28;20044;-57
2022/11/29 06:39:24;;;;;;;27.85;13.20;;;5.90;99.90;;;;;;5061325;28;20106;-57
2022/11/29 06:41:50;;;;;;;27.15;12.90;;;5.90;99.90;;;;;;5064541;28;20063;-58
2022/11/29 06:44:15;;;;;;;20.13;12.48;;;6.00;99.90;;;;;;5063746;28;20044;-58
2022/11/29 06:46:46;;;;;;;17.42;10.73;;;6.00;99.90;;;;;;5066708;28;20059;-58
2022/11/29 06:49:25;;;;;;;23.13;11.98;;;6.00;99.90;;;;;;5061084;28;20052;-57
2022/11/29 06:52:06;;;;;;;23.92;11.63;;;6.00;99.90;;;;;;5054763;28;20506;-58
2022/11/29 06:55:02;;;;;;;21.90;12.10;;;6.00;99.90;;;;;;5062148;28;20041;-58
2022/11/29 06:57:52;;;;;;;22.42;12.80;;;5.90;99.90;;;;;;5073056;28;20102;-57
2022/11/29 07:00:35;;;;;;;20.80;11.50;;;6.00;99.90;;;;;;5059272;28;20481;-57
2022/11/29 07:03:20;;;;;;;26.67;13.37;;;6.00;99.90;;;;;;5064042;28;20218;-58
2022/11/29 07:05:46;;;;;;;30.88;14.00;;;6.00;99.90;;;;;;5059627;28;20059;-58
2022/11/29 07:08:17;;;;;;;30.27;13.63;;;6.00;99.90;;;;;;5056914;28;20048;-57
2022/11/29 07:10:48;;;;;;;29.35;13.82;;;6.00;99.90;;;;;;5062977;28;20379;-58
2022/11/29 07:13:14;;;;;;;19.48;10.95;;;6.10;99.90;;;;;;5063756;28;20040;-57
2022/11/29 07:15:52;;;;;;;24.77;12.52;;;6.10;99.90;;;;;;5066237;28;20032;-58
2022/11/29 07:18:44;;;;;;;28.83;13.88;;;6.10;99.90;;;;;;5059622;28;20039;-58
2022/11/29 07:21:45;;;;;;;25.35;13.02;;;6.10;99.90;;;;;;5060291;28;20048;-57
2022/11/29 07:24:28;;;;;;;25.02;13.30;;;6.10;99.90;;;;;;5057592;28;20080;-58
2022/11/29 07:26:57;;;;;;;24.38;12.43;;;6.10;99.90;;;;;;5049912;28;20487;-57
2022/11/29 07:29:32;;;;;;;25.05;12.75;;;6.20;99.90;;;;;;5062479;28;20044;-57
2022/11/29 07:32:09;;;;;;;22.95;13.18;;;6.20;99.90;;;;;;5061659;28;20045;-57
2022/11/29 07:34:42;;;;;;;21.65;12.32;;;6.20;99.90;;;;;;5063646;28;20097;-58
2022/11/29 07:37:14;;;;;;;22.58;10.68;;;6.20;99.90;;;;;;5049604;28;20041;-58
2022/11/29 07:39:54;;;;;;;22.38;12.05;;;6.30;99.90;;;;;;5045066;28;20047;-58
2022/11/29 07:42:28;;;;;;;26.88;13.82;;;6.30;99.90;;;;;;5083054;28;20055;-57
2022/11/29 07:45:05;;;;;;;28.83;14.43;;;6.30;99.90;;;;;;5047770;28;20048;-58
2022/11/29 07:47:31;;;;;;;24.70;12.57;;;6.30;99.90;;;;;;5063572;28;20055;-58
2022/11/29 07:49:57;;;;;;;36.05;13.70;;;6.30;99.90;;;;;;5064239;28;20531;-58
2022/11/29 07:52:23;;;;;;;28.50;12.88;;;6.30;99.90;;;;;;5063961;28;20068;-58
2022/11/29 07:54:48;;;;;;;22.50;12.95;;;6.40;99.90;;;;;;5067456;28;20032;-57
2022/11/29 07:57:14;;;;;;;28.13;11.55;;;6.40;99.90;;;;;;5068316;28;20487;-57
2022/11/29 07:59:40;;;;;;;21.40;10.82;;;6.40;99.90;;;;;;5063159;28;20044;-56
2022/11/29 08:02:06;;;;;;;22.05;11.77;;;6.40;99.90;;;;;;5067219;28;20044;-57
2022/11/29 08:04:31;;;;;;;29.70;12.40;;;6.40;99.90;;;;;;5062574;28;20483;-56
2022/11/29 08:06:58;;;;;;;26.75;11.80;;;6.40;99.90;;;;;;5081753;28;20075;-57
2022/11/29 08:09:24;;;;;;;22.90;12.52;;;6.40;99.90;;;;;;5066650;28;20469;-56
2022/11/29 08:11:50;;;;;;;24.17;13.35;;;6.40;99.90;;;;;;5064668;28;20048;-57
2022/11/29 08:14:16;;;;;;;31.45;14.07;;;6.40;99.90;;;;;;5064178;28;20522;-56
2022/11/29 08:16:41;;;;;;;26.35;12.23;;;6.40;99.90;;;;;;5067567;28;20055;-56
2022/11/29 08:19:10;;;;;;;26.35;12.30;;;6.40;99.90;;;;;;5050312;28;20051;-56
2022/11/29 08:21:36;;;;;;;27.45;11.75;;;6.40;99.90;;;;;;5053210;28;20039;-57
2022/11/29 08:24:01;;;;;;;32.38;13.68;;;6.50;99.90;;;;;;5066339;28;20048;-57
2022/11/29 08:26:28;;;;;;;24.45;11.38;;;6.50;99.90;;;;;;5048109;28;20395;-56
2022/11/29 08:28:54;;;;;;;25.75;11.02;;;6.60;99.90;;;;;;5069360;28;20394;-56
2022/11/29 08:31:20;;;;;;;25.58;11.85;;;6.50;99.90;;;;;;5069254;28;20040;-57
2022/11/29 08:33:46;;;;;;;28.52;12.45;;;6.60;99.90;;;;;;5071168;28;20510;-57
2022/11/29 08:36:21;;;;;;;34.33;12.52;;;6.60;99.90;;;;;;5076948;28;20101;-56
2022/11/29 08:38:46;;;;;;;32.83;13.98;;;6.60;99.90;;;;;;5048424;28;20075;-57
2022/11/29 08:41:14;;;;;;;30.08;12.05;;;6.60;99.90;;;;;;5060076;28;20071;-56
2022/11/29 08:43:40;;;;;;;32.30;13.07;;;6.70;99.90;;;;;;5067740;28;20105;-57
2022/11/29 08:46:07;;;;;;;30.80;11.63;;;6.70;99.90;;;;;;5050207;28;20532;-57
2022/11/29 08:48:34;;;;;;;29.65;13.27;;;6.70;99.90;;;;;;5049234;28;20044;-57
2022/11/29 08:51:00;;;;;;;28.80;11.52;;;6.70;99.90;;;;;;5068390;28;20502;-57
2022/11/29 08:53:41;;;;;;;28.63;12.45;;;6.70;99.90;;;;;;5067125;28;20040;-57
2022/11/29 08:56:09;;;;;;;24.48;11.35;;;6.70;99.90;;;;;;5064852;28;20079;-57
2022/11/29 08:58:35;;;;;;;31.05;10.57;;;6.80;99.90;;;;;;5065381;28;20115;-56
2022/11/29 09:01:00;;;;;;;27.35;10.45;;;6.80;99.90;;;;;;5074261;28;20119;-56
2022/11/29 09:06:14;;;;;;;29.88;10.57;;;6.90;99.90;;;;;;5073558;28;20131;-56
2022/11/29 09:08:44;;;;;;;30.60;10.93;;;7.00;99.90;;;;;;5069515;28;20040;-57
2022/11/29 09:11:16;;;;;;;28.45;10.85;;;7.00;99.90;;;;;;5067173;28;20048;-56
2022/11/29 09:13:44;;;;;;;29.17;10.77;;;7.10;99.90;;;;;;5049567;28;20044;-56
2022/11/29 09:16:12;;;;;;;27.98;11.00;;;7.10;99.90;;;;;;5069086;28;20051;-57
2022/11/29 09:18:39;;;;;;;30.10;12.75;;;7.20;99.90;;;;;;5052054;28;20097;-57
2022/11/29 09:21:07;;;;;;;22.83;11.25;;;7.20;99.90;;;;;;5053184;28;20040;-56
2022/11/29 09:23:34;;;;;;;30.30;12.38;;;7.30;99.90;;;;;;5071193;28;20435;-57
2022/11/29 09:26:00;;;;;;;49.92;22.30;;;7.30;99.90;;;;;;5077972;28;20097;-57
2022/11/29 09:28:26;;;;;;;52.25;25.40;;;7.40;99.90;;;;;;5058884;28;20052;-56
2022/11/29 09:30:52;;;;;;;48.38;21.88;;;7.50;99.90;;;;;;5064306;28;20044;-57
2022/11/29 09:33:18;;;;;;;45.67;18.05;;;7.60;99.90;;;;;;5077390;28;20460;-57
2022/11/29 09:35:44;;;;;;;36.40;14.82;;;7.70;99.90;;;;;;5078947;28;20371;-57
2022/11/29 09:38:11;;;;;;;34.35;15.02;;;7.80;99.90;;;;;;5057807;28;20052;-57
2022/11/29 09:40:45;;;;;;;31.15;11.77;;;8.00;99.90;;;;;;5075245;28;20076;-57
2022/11/29 09:43:20;;;;;;;29.88;10.95;;;8.10;99.90;;;;;;5062584;28;20059;-59
2022/11/29 09:45:49;;;;;;;27.80;10.70;;;8.20;99.90;;;;;;5045519;28;20044;-57
2022/11/29 09:48:29;;;;;;;39.65;12.63;;;8.30;99.90;;;;;;5066010;28;20040;-57
2022/11/29 09:51:33;;;;;;;30.75;9.98;;;8.40;99.90;;;;;;5063943;28;20048;-56
2022/11/29 09:54:50;;;;;;;34.05;8.73;;;8.60;99.90;;;;;;5065519;28;20047;-56
2022/11/29 09:57:18;;;;;;;39.60;10.30;;;8.80;99.90;;;;;;5051642;28;20049;-58
2022/11/29 09:59:51;;;;;;;25.58;8.15;;;8.80;99.90;;;;;;5064343;28;20067;-57
2022/11/29 10:02:24;;;;;;;31.55;7.60;;;8.90;99.90;;;;;;5063716;28;20048;-57
2022/11/29 10:04:55;;;;;;;26.88;9.00;;;8.90;99.90;;;;;;5066354;28;20037;-56
2022/11/29 10:07:37;;;;;;;36.83;8.73;;;9.00;99.90;;;;;;5059982;28;20082;-57
2022/11/29 10:10:08;;;;;;;22.50;6.90;;;9.00;99.90;;;;;;5064408;28;20059;-56
2022/11/29 10:12:44;;;;;;;35.10;9.27;;;9.00;99.90;;;;;;5068169;28;20649;-58
2022/11/29 10:15:22;;;;;;;35.70;8.93;;;9.00;99.90;;;;;;5062066;28;20056;-56
2022/11/29 10:17:57;;;;;;;38.17;7.85;;;9.10;99.90;;;;;;5063573;28;20093;-55
2022/11/29 10:20:29;;;;;;;23.90;6.22;;;9.10;99.90;;;;;;5061572;28;20475;-54
2022/11/29 10:23:32;;;;;;;25.90;7.25;;;9.10;99.90;;;;;;5062397;28;20550;-55
2022/11/29 10:25:59;;;;;;;23.67;7.07;;;9.20;99.90;;;;;;5035609;28;20044;-57
2022/11/29 10:28:30;;;;;;;22.60;6.20;;;9.10;99.90;;;;;;5064546;28;20495;-57
2022/11/29 10:31:00;;;;;;;24.38;7.13;;;9.20;99.90;;;;;;5062044;28;20048;-57
2022/11/29 10:33:30;;;;;;;31.70;8.80;;;9.20;99.90;;;;;;5047913;28;20036;-57
2022/11/29 10:36:00;;;;;;;32.67;9.18;;;9.20;99.90;;;;;;5061768;28;20048;-58
2022/11/29 10:38:25;;;;;;;32.33;9.70;;;9.10;99.90;;;;;;5047936;28;20066;-57
2022/11/29 10:41:14;;;;;;;26.42;8.60;;;9.10;99.90;;;;;;5062584;28;20033;-57
2022/11/29 10:43:41;;;;;;;34.65;9.43;;;9.20;99.90;;;;;;5059535;28;20037;-57
2022/11/29 10:46:14;;;;;;;29.92;9.15;;;9.20;99.90;;;;;;5065065;28;20286;-57
2022/11/29 10:48:39;;;;;;;24.77;7.22;;;9.10;99.90;;;;;;5064780;28;20259;-57
2022/11/29 10:51:15;;;;;;;37.38;8.48;;;9.30;99.90;;;;;;5062731;28;20450;-57
2022/11/29 10:53:41;;;;;;;29.73;8.57;;;9.30;99.90;;;;;;5062943;28;20053;-57
2022/11/29 10:56:15;;;;;;;28.15;9.00;;;9.40;99.90;;;;;;5063115;28;20131;-57
2022/11/29 10:59:01;;;;;;;28.73;8.88;;;9.40;99.90;;;;;;5064936;28;20049;-57
2022/11/29 11:01:30;;;;;;;25.65;7.93;;;9.50;99.90;;;;;;5074298;28;20047;-57
2022/11/29 11:03:57;;;;;;;29.02;9.68;;;9.50;99.90;;;;;;5061545;28;20048;-57
2022/11/29 11:06:42;;;;;;;31.52;8.10;;;9.60;99.90;;;;;;5059811;28;20540;-57
2022/11/29 11:09:39;;;;;;;25.70;7.90;;;9.60;99.90;;;;;;5060635;28;20037;-57
2022/11/29 11:12:14;;;;;;;28.85;8.63;;;9.70;99.90;;;;;;5060703;28;20135;-57
2022/11/29 11:14:40;;;;;;;32.35;11.38;;;9.70;99.90;;;;;;5061857;28;20351;-57
2022/11/29 11:17:21;;;;;;;28.38;10.63;;;9.80;99.90;;;;;;5043920;28;20175;-56
2022/11/29 11:20:18;;;;;;;27.88;9.27;;;9.80;99.90;;;;;;5064481;28;20398;-57
2022/11/29 11:22:58;;;;;;;28.15;10.23;;;9.90;99.90;;;;;;5059574;28;20139;-57
2022/11/29 11:25:29;;;;;;;23.70;10.15;;;10.00;99.90;;;;;;5074475;28;20048;-57
2022/11/29 11:27:57;;;;;;;24.85;10.02;;;10.00;99.90;;;;;;5062624;28;20044;-57
2022/11/29 11:30:26;;;;;;;30.30;11.93;;;10.00;99.90;;;;;;5064032;28;20071;-57
2022/11/29 11:33:07;;;;;;;21.02;9.65;;;10.00;99.90;;;;;;5059642;28;20048;-57
2022/11/29 11:35:33;;;;;;;24.58;9.52;;;10.00;99.90;;;;;;5064646;28;20036;-56
2022/11/29 11:37:58;;;;;;;22.33;10.52;;;10.00;99.90;;;;;;5063183;28;20044;-56
2022/11/29 11:40:28;;;;;;;19.95;10.30;;;10.00;99.90;;;;;;5059427;28;20054;-57
2022/11/29 11:42:57;;;;;;;24.85;12.05;;;10.00;99.90;;;;;;5043905;28;20114;-57
2022/11/29 11:45:30;;;;;;;25.17;11.43;;;10.10;99.90;;;;;;5055693;28;20097;-57
2022/11/29 11:48:00;;;;;;;22.83;11.10;;;10.20;99.90;;;;;;5058753;28;23613;-58
2022/11/29 11:50:36;;;;;;;24.02;11.20;;;10.20;99.90;;;;;;5059512;28;20044;-56
2022/11/29 11:53:06;;;;;;;22.55;10.55;;;10.30;99.90;;;;;;5059345;28;20037;-57
2022/11/29 11:55:33;;;;;;;21.92;11.15;;;10.30;99.90;;;;;;5069818;22;20826;-61
2022/11/29 11:58:06;;;;;;;25.55;11.63;;;10.40;99.90;;;;;;5015989;28;20557;-60
2022/11/29 12:00:46;;;;;;;21.95;12.18;;;10.40;99.90;;;;;;5035818;28;20408;-60
2022/11/29 12:03:47;;;;;;;24.50;11.90;;;10.40;99.90;;;;;;5002330;28;20136;-61
2022/11/29 12:06:45;;;;;;;19.73;11.80;;;10.40;99.90;;;;;;4993581;28;20102;-60
2022/11/29 12:09:32;;;;;;;24.50;12.75;;;10.40;99.90;;;;;;4990169;28;20701;-60
2022/11/29 12:12:38;;;;;;;19.30;12.30;;;10.40;99.90;;;;;;5008513;28;20531;-60
2022/11/29 12:15:18;;;;;;;18.30;12.40;;;10.40;99.90;;;;;;5007929;28;20049;-61
2022/11/29 12:18:04;;;;;;;16.17;11.05;;;10.40;99.90;;;;;;4987317;28;20175;-60
2022/11/29 12:21:04;;;;;;;17.65;11.32;;;10.40;99.90;;;;;;5012846;28;20055;-59
2022/11/29 12:23:29;;;;;;;18.77;12.10;;;10.40;99.90;;;;;;4984673;28;20049;-61
2022/11/29 12:26:11;;;;;;;18.90;11.90;;;10.30;99.90;;;;;;5013713;28;20112;-60
2022/11/29 12:28:41;;;;;;;19.55;11.93;;;10.30;99.90;;;;;;5015164;28;20041;-60
2022/11/29 12:31:10;;;;;;;15.93;11.35;;;10.30;99.90;;;;;;5018758;28;20570;-61
2022/11/29 12:33:48;;;;;;;16.60;11.85;;;10.30;99.90;;;;;;5012405;28;20056;-59
2022/11/29 12:36:52;;;;;;;14.25;11.30;;;10.30;99.90;;;;;;5009564;28;20040;-59
2022/11/29 12:39:36;;;;;;;16.92;10.95;;;10.20;99.90;;;;;;4995270;28;20281;-61
2022/11/29 12:42:15;;;;;;;14.00;10.20;;;10.20;99.90;;;;;;4995291;28;20102;-61
2022/11/29 12:44:41;;;;;;;11.30;8.50;;;10.20;99.90;;;;;;5007265;28;20546;-61
2022/11/29 12:47:15;;;;;;;17.33;9.40;;;10.30;99.90;;;;;;5023101;28;20033;-61
2022/11/29 12:49:56;;;;;;;16.00;10.02;;;10.30;99.90;;;;;;5011938;28;20275;-61
2022/11/29 12:52:39;;;;;;;13.38;8.00;;;10.40;99.90;;;;;;5006009;28;20385;-61
2022/11/29 12:55:25;;;;;;;14.07;9.67;;;10.30;99.90;;;;;;5025589;28;20049;-61
2022/11/29 12:58:20;;;;;;;11.60;7.95;;;10.40;99.90;;;;;;5012502;28;20443;-61
2022/11/29 13:00:52;;;;;;;10.60;7.72;;;10.30;99.90;;;;;;4957310;28;20051;-60
2022/11/29 13:03:35;;;;;;;11.20;8.50;;;10.30;99.90;;;;;;5006449;28;20084;-60
2022/11/29 13:06:19;;;;;;;14.52;8.63;;;10.30;99.90;;;;;;4992111;28;20073;-61
2022/11/29 13:09:02;;;;;;;13.68;8.80;;;10.30;99.90;;;;;;5013564;28;20041;-61
2022/11/29 13:11:36;;;;;;;13.73;10.10;;;10.30;99.90;;;;;;5010547;28;20100;-60
2022/11/29 13:14:38;;;;;;;17.02;10.70;;;10.30;99.90;;;;;;5023430;28;20047;-61
2022/11/29 13:17:13;;;;;;;13.98;10.13;;;10.40;99.90;;;;;;5000825;28;20099;-61
2022/11/29 13:19:48;;;;;;;13.10;9.90;;;10.30;99.90;;;;;;5040771;28;20400;-61
2022/11/29 13:22:40;;;;;;;14.43;7.75;;;10.40;99.90;;;;;;5014082;28;20083;-60
2022/11/29 13:25:20;;;;;;;10.55;7.50;;;10.30;99.90;;;;;;5006657;28;20582;-61
2022/11/29 13:27:57;;;;;;;13.18;7.07;;;10.30;99.90;;;;;;5019945;28;20416;-60
2022/11/29 13:30:23;;;;;;;10.50;6.40;;;10.30;99.90;;;;;;5002772;28;20045;-60